Gatika, Spain
Current Conditions -  °F | °C
As of 8:30 AM on Monday 22 Dec 2014 (Local Time) from LEBB Reporting Station
Clear Clear  
Wind Chill: 35°   Ceiling: Unl
Heat Index: 39°   Visibility: 5mi
Dew Point: 39°   Wind: 6mph
Humidity: 100%   Direction: 110°ESE
Pressure: 30.48"   Gusts: NA
Location:  43.37°N, 2.87°W
Report Text: LEBB 220730Z 11005KT 090V150 8000 NSC 04/04 Q1032 NOSIG
Loading
Personal Weather Stations






























Interactive Weather Map New forecast layout! Learn more

10-Day Weather Forecast

Advertisements
Track Severe Weather on mobile